createdAt,value
2018-03-22T00:00:35.087Z,16.03
2018-03-22T00:03:02.564Z,12.90
2018-03-22T00:05:30.812Z,15.20
2018-03-22T00:07:58.258Z,15.30
2018-03-22T00:10:25.743Z,14.03
2018-03-22T00:12:53.966Z,13.70
2018-03-22T00:15:21.427Z,14.07
2018-03-22T00:17:48.894Z,12.83
2018-03-22T00:20:18.047Z,14.33
2018-03-22T00:22:45.503Z,14.00
2018-03-22T00:25:12.979Z,14.53
2018-03-22T00:27:40.462Z,14.00
2018-03-22T00:30:07.922Z,14.00
2018-03-22T00:32:35.378Z,15.30
2018-03-22T00:35:02.860Z,13.70
2018-03-22T00:37:30.306Z,14.67
2018-03-22T00:39:57.783Z,15.27
2018-03-22T00:42:26.007Z,14.13
2018-03-22T00:44:53.479Z,13.57
2018-03-22T00:47:20.951Z,14.20
2018-03-22T00:49:48.410Z,13.20
2018-03-22T00:52:15.867Z,14.57
2018-03-22T00:54:43.335Z,14.37
2018-03-22T00:57:11.554Z,14.50
2018-03-22T00:59:39.011Z,14.47
2018-03-22T01:02:06.491Z,13.07
2018-03-22T01:04:33.954Z,14.70
2018-03-22T01:07:01.411Z,14.90
2018-03-22T01:09:28.887Z,14.00
2018-03-22T01:11:56.342Z,13.97
2018-03-22T01:14:23.791Z,13.40
2018-03-22T01:16:51.270Z,14.20
2018-03-22T01:19:19.509Z,13.37
2018-03-22T01:21:46.963Z,14.57
2018-03-22T01:24:14.434Z,14.33
2018-03-22T01:26:41.898Z,13.80
2018-03-22T01:29:09.363Z,12.97
2018-03-22T01:31:37.602Z,15.03
2018-03-22T01:34:05.066Z,13.63
2018-03-22T01:36:32.582Z,15.30
2018-03-22T01:39:00.056Z,14.40
2018-03-22T01:41:27.514Z,14.13
2018-03-22T01:43:54.975Z,14.40
2018-03-22T01:46:22.447Z,13.37
2018-03-22T01:48:49.902Z,12.13
2018-03-22T01:51:17.372Z,12.80
2018-03-22T01:53:44.834Z,14.10
2018-03-22T01:56:12.304Z,13.17
2018-03-22T01:58:39.749Z,13.40
2018-03-22T02:01:07.214Z,12.20
2018-03-22T02:03:34.672Z,12.40
2018-03-22T02:06:02.132Z,14.00
2018-03-22T02:08:29.635Z,14.70
2018-03-22T02:10:57.095Z,13.00
2018-03-22T02:13:24.554Z,12.37
2018-03-22T02:15:52.048Z,12.27
2018-03-22T02:18:19.515Z,11.83
2018-03-22T02:20:46.987Z,11.20
2018-03-22T02:23:15.221Z,12.13
2018-03-22T02:25:42.691Z,10.10
2018-03-22T02:28:10.151Z,10.90
2018-03-22T02:30:37.632Z,11.23
2018-03-22T02:33:05.855Z,11.00
2018-03-22T02:35:33.322Z,10.70
2018-03-22T02:38:00.787Z,10.07
2018-03-22T02:40:28.239Z,10.53
2018-03-22T02:42:55.700Z,9.00
2018-03-22T02:45:23.172Z,9.00
2018-03-22T02:47:50.626Z,8.83
2018-03-22T02:50:18.088Z,9.83
2018-03-22T02:52:45.551Z,9.70
2018-03-22T02:55:13.782Z,9.60
2018-03-22T02:57:41.248Z,9.97
2018-03-22T03:00:08.723Z,10.70
2018-03-22T03:02:36.191Z,11.20
2018-03-22T03:05:03.663Z,11.23
2018-03-22T03:07:31.910Z,11.23
2018-03-22T03:09:59.378Z,10.37
2018-03-22T03:12:26.830Z,9.43
2018-03-22T03:14:55.814Z,9.93
2018-03-22T03:17:24.775Z,9.87
2018-03-22T03:19:52.244Z,9.73
2018-03-22T03:22:19.711Z,9.43
2018-03-22T03:24:47.179Z,10.90
2018-03-22T03:27:14.634Z,10.50
2018-03-22T03:29:42.110Z,11.60
2018-03-22T03:32:10.340Z,13.33
2018-03-22T03:34:37.800Z,12.17
2018-03-22T03:37:05.262Z,13.80
2018-03-22T03:39:32.747Z,12.80
2018-03-22T03:42:00.210Z,14.00
2018-03-22T03:44:27.679Z,14.37
2018-03-22T03:46:55.913Z,14.77
2018-03-22T03:49:23.494Z,14.63
2018-03-22T03:51:50.966Z,16.30
2018-03-22T03:54:19.204Z,14.30
2018-03-22T03:56:46.667Z,15.00
2018-03-22T03:59:14.154Z,13.20
2018-03-22T04:01:42.382Z,14.40
2018-03-22T04:04:09.848Z,15.20
2018-03-22T04:06:37.326Z,13.20
2018-03-22T04:09:04.797Z,15.40
2018-03-22T04:11:33.440Z,13.50
2018-03-22T04:14:00.931Z,13.63
2018-03-22T04:16:29.162Z,13.80
2018-03-22T04:18:56.623Z,13.80
2018-03-22T04:21:24.123Z,13.50
2018-03-22T04:23:52.347Z,13.57
2018-03-22T04:26:19.807Z,12.57
2018-03-22T04:28:47.278Z,16.27
2018-03-22T04:31:14.743Z,13.37
2018-03-22T04:33:42.219Z,14.73
2018-03-22T04:36:10.492Z,12.90
2018-03-22T04:38:37.947Z,14.27
2018-03-22T04:41:05.402Z,14.17
2018-03-22T04:43:32.902Z,15.27
2018-03-22T04:46:00.362Z,16.27
2018-03-22T04:48:27.834Z,16.80
2018-03-22T04:50:55.308Z,16.60
2018-03-22T04:53:22.789Z,15.50
2018-03-22T04:55:50.260Z,14.37
2018-03-22T04:58:18.490Z,15.37
2018-03-22T05:00:45.971Z,16.20
2018-03-22T05:03:13.450Z,13.23
2018-03-22T05:05:41.675Z,12.27
2018-03-22T05:08:09.139Z,13.43
2018-03-22T05:10:36.606Z,12.60
2018-03-22T05:13:04.063Z,13.30
2018-03-22T05:15:31.538Z,13.40
2018-03-22T05:17:59.015Z,12.40
2018-03-22T05:20:27.247Z,13.93
2018-03-22T05:22:54.703Z,13.40
2018-03-22T05:25:22.183Z,15.03
2018-03-22T05:27:49.647Z,14.70
2018-03-22T05:30:17.115Z,12.10
2018-03-22T05:32:45.347Z,13.33
2018-03-22T05:35:12.829Z,11.73
2018-03-22T05:37:40.278Z,11.87
2018-03-22T05:40:07.751Z,11.20
2018-03-22T05:42:36.055Z,11.73
2018-03-22T05:45:03.530Z,11.70
2018-03-22T05:47:31.839Z,10.70
2018-03-22T05:50:00.163Z,11.53
2018-03-22T05:52:27.635Z,11.77
2018-03-22T05:54:55.098Z,10.60
2018-03-22T05:57:22.566Z,9.33
2018-03-22T05:59:50.038Z,9.80
2018-03-22T06:02:18.360Z,9.90
2018-03-22T06:04:45.819Z,11.23
2018-03-22T06:07:13.280Z,11.83
2018-03-22T06:09:42.399Z,10.07
2018-03-22T06:12:09.850Z,13.57
2018-03-22T06:14:37.868Z,12.00
2018-03-22T06:17:05.335Z,11.40
2018-03-22T06:19:33.568Z,11.20
2018-03-22T06:22:01.035Z,12.10
2018-03-22T06:24:28.512Z,12.83
2018-03-22T06:26:57.484Z,12.20
2018-03-22T06:29:24.996Z,13.17
2018-03-22T06:31:52.523Z,12.63
2018-03-22T06:34:20.013Z,14.67
2018-03-22T06:36:47.586Z,14.10
2018-03-22T06:39:15.066Z,15.50
2018-03-22T06:41:42.538Z,17.40
2018-03-22T06:44:10.002Z,17.33
2018-03-22T06:46:37.482Z,16.80
2018-03-22T06:49:06.783Z,16.47
2018-03-22T06:51:35.376Z,18.33
2018-03-22T06:54:03.612Z,18.80
2018-03-22T06:56:33.926Z,17.00
2018-03-22T06:59:01.409Z,18.67
2018-03-22T07:01:28.885Z,17.23
2018-03-22T07:03:57.114Z,18.10
2018-03-22T07:06:24.580Z,19.60
2018-03-22T07:08:52.056Z,18.80
2018-03-22T07:11:19.519Z,17.93
2018-03-22T07:13:47.750Z,18.87
2018-03-22T07:16:15.232Z,19.17
2018-03-22T07:18:42.691Z,21.47
2018-03-22T07:21:10.159Z,20.13
2018-03-22T07:23:38.395Z,18.47
2018-03-22T07:26:05.863Z,20.00
2018-03-22T07:28:33.346Z,18.50
2018-03-22T07:31:00.810Z,19.30
2018-03-22T07:33:29.043Z,17.07
2018-03-22T07:35:57.319Z,18.87
2018-03-22T07:38:24.777Z,18.43
2018-03-22T07:40:52.245Z,22.13
2018-03-22T07:43:25.401Z,20.67
2018-03-22T07:45:52.883Z,18.67
2018-03-22T07:48:20.341Z,17.03
2018-03-22T07:50:47.827Z,17.07
2018-03-22T07:53:15.292Z,17.53
2018-03-22T07:55:43.522Z,16.47
2018-03-22T07:58:10.994Z,16.20
2018-03-22T08:00:38.463Z,16.90
2018-03-22T08:03:05.918Z,17.33
2018-03-22T08:05:34.204Z,16.27
2018-03-22T08:08:01.672Z,18.20
2018-03-22T08:10:29.902Z,18.97
2018-03-22T08:12:57.377Z,18.67
2018-03-22T08:15:24.850Z,20.60
2018-03-22T08:17:52.310Z,21.60
2018-03-22T08:20:20.543Z,20.23
2018-03-22T08:22:48.016Z,21.80
2018-03-22T08:25:16.464Z,21.17
2018-03-22T08:27:43.976Z,21.63
2018-03-22T08:30:11.456Z,21.93
2018-03-22T08:32:39.742Z,23.63
2018-03-22T08:35:07.979Z,22.47
2018-03-22T08:37:35.466Z,26.27
2018-03-22T08:40:02.933Z,26.47
2018-03-22T08:42:30.393Z,29.93
2018-03-22T08:44:57.864Z,28.47
2018-03-22T08:47:25.328Z,27.50
2018-03-22T08:49:52.795Z,29.43
2018-03-22T08:52:20.272Z,29.07
2018-03-22T08:54:47.747Z,30.90
2018-03-22T08:57:15.631Z,28.63
2018-03-22T08:59:43.916Z,31.33
2018-03-22T09:02:11.339Z,32.77
2018-03-22T09:04:38.811Z,29.07
2018-03-22T09:07:07.043Z,31.37
2018-03-22T09:09:35.174Z,32.17
2018-03-22T09:12:02.734Z,29.10
2018-03-22T09:14:30.163Z,32.50
2018-03-22T09:16:58.396Z,32.53
2018-03-22T09:19:25.880Z,29.10
2018-03-22T09:21:53.336Z,31.67
2018-03-22T09:24:20.793Z,32.20
2018-03-22T09:26:53.835Z,29.17
2018-03-22T09:29:21.300Z,30.93
2018-03-22T09:31:48.780Z,28.43
2018-03-22T09:34:16.252Z,28.47
2018-03-22T09:36:43.714Z,29.63
2018-03-22T09:39:11.187Z,26.10
2018-03-22T09:41:39.446Z,28.27
2018-03-22T09:44:06.899Z,27.63
2018-03-22T09:46:34.363Z,24.80
2018-03-22T09:49:01.874Z,25.53
2018-03-22T09:51:29.307Z,23.90
2018-03-22T09:53:56.789Z,25.27
2018-03-22T09:56:24.255Z,22.67
2018-03-22T09:58:52.484Z,23.40
2018-03-22T10:01:20.718Z,23.67
2018-03-22T10:03:48.173Z,20.47
2018-03-22T10:06:15.635Z,21.93
2018-03-22T10:08:43.108Z,20.17
2018-03-22T10:11:10.572Z,22.20
2018-03-22T10:13:38.798Z,21.60
2018-03-22T10:16:06.295Z,20.53
2018-03-22T10:18:33.783Z,21.60
2018-03-22T10:21:01.320Z,20.70
2018-03-22T10:23:28.793Z,19.00
2018-03-22T10:25:57.022Z,20.53
2018-03-22T10:28:24.476Z,20.00
2018-03-22T10:30:51.955Z,17.47
2018-03-22T10:33:19.415Z,16.20
2018-03-22T10:35:46.870Z,15.57
2018-03-22T10:38:14.340Z,13.67
2018-03-22T10:40:42.568Z,16.40
2018-03-22T10:43:10.031Z,14.20
2018-03-22T10:45:37.519Z,10.93
2018-03-22T10:48:04.976Z,11.47
2018-03-22T10:50:32.430Z,12.93
2018-03-22T10:52:59.904Z,13.30
2018-03-22T10:55:28.127Z,12.10
2018-03-22T10:57:55.611Z,13.73
2018-03-22T11:00:28.863Z,11.57
2018-03-22T11:02:57.222Z,11.60
2018-03-22T11:05:24.680Z,12.87
2018-03-22T11:07:52.160Z,13.13
2018-03-22T11:10:19.624Z,11.90
2018-03-22T11:12:47.987Z,11.83
2018-03-22T11:15:16.232Z,10.40
2018-03-22T11:17:44.475Z,11.57
2018-03-22T11:20:11.942Z,11.63
2018-03-22T11:22:39.492Z,11.60
2018-03-22T11:25:06.955Z,11.60
2018-03-22T11:27:35.212Z,10.17
2018-03-22T11:30:02.687Z,10.10
2018-03-22T11:32:30.154Z,10.30
2018-03-22T11:34:58.388Z,9.27
2018-03-22T11:37:25.865Z,9.30
2018-03-22T11:39:53.331Z,9.63
2018-03-22T11:42:20.789Z,10.43
2018-03-22T11:44:48.255Z,9.97
2018-03-22T11:47:17.032Z,8.93
2018-03-22T11:49:44.486Z,8.60
2018-03-22T11:52:12.747Z,8.23
2018-03-22T11:54:40.202Z,8.70
2018-03-22T11:57:07.680Z,9.63
2018-03-22T11:59:35.413Z,6.37
2018-03-22T12:02:02.945Z,7.03
2018-03-22T12:04:30.353Z,7.17
2018-03-22T12:06:57.911Z,6.70
2018-03-22T12:09:25.370Z,7.57
2018-03-22T12:11:54.338Z,7.97
2018-03-22T12:14:21.927Z,9.33
2018-03-22T12:16:49.474Z,8.13
2018-03-22T12:19:18.473Z,8.63
2018-03-22T12:21:45.979Z,7.33
2018-03-22T12:24:14.168Z,7.07
2018-03-22T12:26:41.660Z,6.80
2018-03-22T12:29:09.135Z,7.20
2018-03-22T12:31:37.354Z,7.13
2018-03-22T12:34:04.842Z,7.77
2018-03-22T12:36:32.319Z,7.17
2018-03-22T12:39:00.592Z,6.57
2018-03-22T12:41:28.770Z,6.30
2018-03-22T12:43:57.013Z,6.40
2018-03-22T12:46:24.475Z,7.20
2018-03-22T12:48:51.935Z,7.50
2018-03-22T12:51:19.411Z,7.23
2018-03-22T12:53:46.875Z,8.23
2018-03-22T12:56:15.149Z,7.87
2018-03-22T12:58:42.600Z,8.00
2018-03-22T13:01:10.059Z,7.10
2018-03-22T13:03:38.296Z,7.30
2018-03-22T13:06:05.762Z,6.30
2018-03-22T13:08:33.235Z,7.00
2018-03-22T13:11:00.695Z,8.07
2018-03-22T13:13:28.171Z,7.30
2018-03-22T13:15:55.667Z,7.03
2018-03-22T13:18:23.127Z,6.33
2018-03-22T13:20:50.642Z,6.60
2018-03-22T13:23:18.867Z,7.00
2018-03-22T13:25:46.331Z,7.03
2018-03-22T13:28:14.110Z,7.00
2018-03-22T13:30:42.342Z,7.10
2018-03-22T13:33:09.803Z,7.37
2018-03-22T13:35:38.043Z,6.90
2018-03-22T13:38:06.277Z,6.87
2018-03-22T13:40:33.735Z,5.93
2018-03-22T13:43:01.210Z,7.83
2018-03-22T13:45:28.705Z,6.43
2018-03-22T13:47:56.167Z,6.57
2018-03-22T13:50:23.685Z,6.80
2018-03-22T13:52:51.142Z,6.37
2018-03-22T13:55:18.605Z,6.87
2018-03-22T13:57:46.072Z,6.43
2018-03-22T14:00:14.311Z,6.57
2018-03-22T14:02:41.768Z,6.10
2018-03-22T14:05:09.252Z,5.87
2018-03-22T14:07:37.487Z,6.13
2018-03-22T14:10:04.943Z,6.67
2018-03-22T14:12:32.411Z,6.50
2018-03-22T14:14:59.869Z,6.00
2018-03-22T14:17:27.338Z,7.57
2018-03-22T14:19:54.807Z,7.70
2018-03-22T14:22:22.265Z,6.10
2018-03-22T14:24:49.722Z,6.93
2018-03-22T14:27:17.614Z,7.07
2018-03-22T14:29:45.071Z,7.07
2018-03-22T14:32:12.523Z,7.20
2018-03-22T14:34:40.767Z,8.17
2018-03-22T14:37:08.235Z,7.17
2018-03-22T14:39:35.698Z,6.37
2018-03-22T14:42:03.955Z,8.60
2018-03-22T14:44:31.424Z,7.57
2018-03-22T14:46:58.887Z,8.07
2018-03-22T14:49:27.122Z,8.07
2018-03-22T14:51:54.589Z,9.33
2018-03-22T14:54:22.039Z,10.10
2018-03-22T14:56:49.515Z,8.50
2018-03-22T14:59:16.977Z,7.40
2018-03-22T15:01:44.434Z,8.37
2018-03-22T15:04:11.918Z,8.93
2018-03-22T15:06:39.372Z,7.90
2018-03-22T15:09:07.600Z,9.70
2018-03-22T15:11:35.084Z,9.60
2018-03-22T15:14:02.538Z,9.23
2018-03-22T15:16:29.996Z,8.67
2018-03-22T15:18:57.481Z,9.57
2018-03-22T15:21:24.940Z,11.20
2018-03-22T15:23:52.447Z,9.07
2018-03-22T15:26:19.892Z,9.70
2018-03-22T15:28:47.355Z,9.57
2018-03-22T15:31:15.615Z,10.23
2018-03-22T15:33:43.091Z,10.70
2018-03-22T15:36:10.550Z,10.37
2018-03-22T15:38:38.018Z,10.50
2018-03-22T15:41:05.502Z,9.57
2018-03-22T15:43:33.723Z,9.83
2018-03-22T15:46:01.192Z,10.13
2018-03-22T15:48:28.667Z,9.50
2018-03-22T15:50:56.123Z,11.33
2018-03-22T15:53:23.583Z,10.73
2018-03-22T15:55:51.071Z,10.33
2018-03-22T15:58:18.532Z,10.50
2018-03-22T16:00:45.980Z,8.90
2018-03-22T16:03:14.454Z,9.80
2018-03-22T16:05:42.687Z,10.40
2018-03-22T16:08:10.145Z,11.97
2018-03-22T16:10:37.711Z,10.20
2018-03-22T16:13:05.175Z,9.70
2018-03-22T16:15:32.636Z,9.20
2018-03-22T16:18:00.123Z,10.40
2018-03-22T16:20:27.577Z,8.17
2018-03-22T16:22:55.255Z,8.50
2018-03-22T16:25:22.760Z,7.63
2018-03-22T16:27:50.220Z,8.40
2018-03-22T16:30:17.674Z,8.00
2018-03-22T16:32:45.151Z,7.53
2018-03-22T16:35:13.376Z,9.13
2018-03-22T16:37:40.840Z,9.00
2018-03-22T16:40:08.336Z,10.20
2018-03-22T16:42:36.560Z,11.30
2018-03-22T16:45:04.027Z,10.47
2018-03-22T16:47:31.511Z,9.00
2018-03-22T16:49:58.973Z,9.10
2018-03-22T16:52:26.431Z,9.10
2018-03-22T16:54:53.955Z,9.97
2018-03-22T16:57:21.474Z,10.10
2018-03-22T16:59:49.007Z,8.57
2018-03-22T17:09:01.828Z,8.57
2018-03-22T17:11:29.287Z,8.70
2018-03-22T17:13:56.738Z,10.77
2018-03-22T17:16:24.252Z,8.47
2018-03-22T17:18:52.475Z,9.73
2018-03-22T17:21:19.938Z,9.13
2018-03-22T17:23:47.447Z,11.20
2018-03-22T17:26:15.470Z,10.13
2018-03-22T17:28:42.928Z,10.30
2018-03-22T17:31:10.404Z,9.90
2018-03-22T17:33:37.919Z,9.10
2018-03-22T17:36:05.378Z,8.73
2018-03-22T17:38:32.878Z,9.43
2018-03-22T17:41:01.262Z,10.13
2018-03-22T17:43:28.766Z,10.70
2018-03-22T17:45:56.251Z,8.70
2018-03-22T17:48:23.715Z,9.30
2018-03-22T17:50:51.204Z,10.43
2018-03-22T17:53:19.443Z,9.27
2018-03-22T17:55:46.898Z,12.83
2018-03-22T17:58:14.376Z,13.23
2018-03-22T18:00:41.842Z,11.60
2018-03-22T18:03:10.075Z,11.13
2018-03-22T18:05:37.577Z,10.83
2018-03-22T18:08:05.804Z,10.63
2018-03-22T18:10:33.260Z,13.23
2018-03-22T18:13:01.763Z,11.93
2018-03-22T18:15:29.223Z,11.47
2018-03-22T18:17:56.738Z,13.10
2018-03-22T18:20:24.211Z,11.23
2018-03-22T18:22:51.751Z,12.93
2018-03-22T18:25:19.159Z,11.63
2018-03-22T18:27:46.658Z,13.20
2018-03-22T18:30:14.106Z,13.90
2018-03-22T18:32:41.579Z,15.87
2018-03-22T18:35:09.105Z,13.07
2018-03-22T18:37:37.339Z,13.77
2018-03-22T18:40:04.816Z,12.60
2018-03-22T18:42:32.280Z,13.20
2018-03-22T18:44:59.738Z,13.90
2018-03-22T18:47:27.208Z,13.47
2018-03-22T18:49:55.435Z,11.70
2018-03-22T18:52:22.906Z,14.23
2018-03-22T18:54:50.396Z,14.20
2018-03-22T18:57:19.347Z,13.50
2018-03-22T18:59:46.831Z,14.10
2018-03-22T19:02:14.315Z,14.17
2018-03-22T19:04:41.770Z,13.57
2018-03-22T19:07:10.012Z,14.47
2018-03-22T19:09:37.511Z,14.27
2018-03-22T19:12:04.996Z,14.60
2018-03-22T19:14:32.470Z,13.00
2018-03-22T19:16:59.939Z,13.13
2018-03-22T19:19:27.406Z,13.73
2018-03-22T19:21:54.930Z,14.07
2018-03-22T19:24:22.412Z,17.80
2018-03-22T19:26:49.880Z,13.70
2018-03-22T19:29:17.441Z,12.90
2018-03-22T19:31:44.941Z,15.03
2018-03-22T19:34:12.413Z,14.50
2018-03-22T19:36:39.867Z,15.40
2018-03-22T19:39:07.375Z,14.27
2018-03-22T19:41:35.655Z,15.87
2018-03-22T19:44:03.923Z,15.80
2018-03-22T19:46:32.253Z,16.20
2018-03-22T19:48:59.759Z,15.13
2018-03-22T19:51:27.996Z,15.53
2018-03-22T19:53:55.591Z,15.90
2018-03-22T19:56:23.828Z,16.00
2018-03-22T19:58:51.314Z,14.97
2018-03-22T20:01:19.674Z,13.80
2018-03-22T20:03:47.158Z,15.30
2018-03-22T20:06:14.629Z,15.03
2018-03-22T20:08:43.017Z,15.10
2018-03-22T20:11:11.297Z,15.10
2018-03-22T20:13:38.716Z,14.87
2018-03-22T20:16:06.204Z,17.03
2018-03-22T20:18:34.434Z,15.47
2018-03-22T20:21:02.016Z,15.47
2018-03-22T20:23:29.479Z,16.70
2018-03-22T20:25:57.743Z,15.77
2018-03-22T20:28:25.227Z,16.43
2018-03-22T20:30:52.696Z,16.10
2018-03-22T20:33:20.175Z,15.10
2018-03-22T20:35:47.646Z,15.83
2018-03-22T20:38:15.107Z,16.43
2018-03-22T20:40:42.568Z,16.03
2018-03-22T20:43:11.550Z,15.90
2018-03-22T20:45:39.022Z,17.10
2018-03-22T20:48:06.477Z,17.83
2018-03-22T20:50:34.003Z,18.50
2018-03-22T20:53:01.460Z,17.43
2018-03-22T20:55:28.948Z,19.47
2018-03-22T20:57:56.426Z,19.20
2018-03-22T21:00:24.659Z,21.30
2018-03-22T21:02:52.165Z,21.60
2018-03-22T21:05:20.418Z,25.00
2018-03-22T21:07:47.886Z,23.70
2018-03-22T21:10:15.396Z,25.40
2018-03-22T21:12:43.355Z,24.97
2018-03-22T21:15:10.898Z,24.10
2018-03-22T21:17:38.387Z,24.83
2018-03-22T21:20:06.052Z,24.20
2018-03-22T21:22:33.704Z,26.63
2018-03-22T21:25:01.379Z,26.53
2018-03-22T21:27:28.858Z,28.37
2018-03-22T21:29:56.349Z,26.80
2018-03-22T21:32:24.038Z,30.17
2018-03-22T21:34:51.535Z,28.37
2018-03-22T21:37:19.814Z,27.73
2018-03-22T21:39:47.286Z,29.40
2018-03-22T21:42:15.552Z,27.53
2018-03-22T21:44:43.023Z,29.50
2018-03-22T21:47:23.155Z,28.70
2018-03-22T21:49:50.622Z,26.60
2018-03-22T21:52:30.051Z,25.30
2018-03-22T21:54:59.012Z,27.77
2018-03-22T21:57:26.498Z,26.07
2018-03-22T21:59:53.968Z,29.40
2018-03-22T22:02:22.187Z,28.43
2018-03-22T22:04:49.775Z,28.63
2018-03-22T22:07:17.328Z,27.80
2018-03-22T22:09:44.797Z,28.30
2018-03-22T22:12:12.261Z,27.73
2018-03-22T22:14:39.734Z,29.73
2018-03-22T22:17:07.962Z,29.07
2018-03-22T22:19:35.424Z,29.40
2018-03-22T22:22:02.900Z,28.73
2018-03-22T22:24:30.360Z,30.27
2018-03-22T22:26:58.768Z,30.57
2018-03-22T22:29:26.218Z,29.80
2018-03-22T22:31:54.443Z,27.50
2018-03-22T22:34:21.918Z,25.43
2018-03-22T22:36:49.395Z,26.60
2018-03-22T22:39:16.863Z,25.30
2018-03-22T22:41:45.087Z,26.27
2018-03-22T22:44:12.569Z,25.87
2018-03-22T22:46:40.786Z,25.27
2018-03-22T22:49:08.247Z,29.33
2018-03-22T22:51:35.738Z,30.33
2018-03-22T22:54:03.222Z,31.70
2018-03-22T22:56:30.683Z,34.87
2018-03-22T22:58:58.240Z,34.10
2018-03-22T23:01:25.707Z,37.37
2018-03-22T23:03:53.168Z,37.07
2018-03-22T23:06:21.403Z,37.33
2018-03-22T23:08:48.863Z,38.77
2018-03-22T23:11:16.337Z,37.77
2018-03-22T23:13:43.812Z,36.63
2018-03-22T23:16:11.273Z,35.37
2018-03-22T23:18:39.539Z,38.57
2018-03-22T23:21:07.102Z,37.97
2018-03-22T23:23:34.643Z,40.90
2018-03-22T23:26:02.105Z,40.47
2018-03-22T23:28:29.622Z,43.27
2018-03-22T23:30:57.082Z,38.47
2018-03-22T23:33:24.531Z,43.80
2018-03-22T23:35:52.006Z,36.30
2018-03-22T23:38:19.494Z,41.33
2018-03-22T23:40:46.956Z,39.07
2018-03-22T23:43:14.422Z,37.03
2018-03-22T23:45:42.646Z,35.60
2018-03-22T23:48:10.107Z,37.53
2018-03-22T23:50:37.655Z,36.20
2018-03-22T23:53:05.114Z,36.90
2018-03-22T23:55:32.582Z,35.27
2018-03-22T23:58:00.054Z,33.93
